createdAt,value
2019-03-24T00:00:08.393Z,4.20
2019-03-24T00:02:37.111Z,4.10
2019-03-24T00:05:07.212Z,4.20
2019-03-24T00:07:36.029Z,4.10
2019-03-24T00:10:06.934Z,4.10
2019-03-24T00:12:36.134Z,4.10
2019-03-24T00:15:07.588Z,4.10
2019-03-24T00:17:36.366Z,4.10
2019-03-24T00:20:10.028Z,4.10
2019-03-24T00:22:38.355Z,4.00
2019-03-24T00:25:07.960Z,4.00
2019-03-24T00:27:36.673Z,3.90
2019-03-24T00:30:10.681Z,3.90
2019-03-24T00:32:39.461Z,3.90
2019-03-24T00:35:08.951Z,3.80
2019-03-24T00:37:37.730Z,3.80
2019-03-24T00:40:08.279Z,3.80
2019-03-24T00:42:36.984Z,3.80
2019-03-24T00:45:10.872Z,3.80
2019-03-24T00:47:39.588Z,3.80
2019-03-24T00:50:08.858Z,3.90
2019-03-24T00:52:38.156Z,3.90
2019-03-24T00:55:08.281Z,3.90
2019-03-24T00:57:37.780Z,3.90
2019-03-24T01:00:08.477Z,4.00
2019-03-24T01:02:37.736Z,4.00
2019-03-24T01:05:08.282Z,4.00
2019-03-24T01:07:37.163Z,4.00
2019-03-24T01:10:07.870Z,4.00
2019-03-24T01:12:36.646Z,4.00
2019-03-24T01:15:07.417Z,4.00
2019-03-24T01:17:37.524Z,4.00
2019-03-24T01:20:08.060Z,4.00
2019-03-24T01:22:37.555Z,4.10
2019-03-24T01:25:07.274Z,4.10
2019-03-24T01:27:36.361Z,4.20
2019-03-24T01:30:07.385Z,4.20
2019-03-24T01:32:36.399Z,4.20
2019-03-24T01:35:07.240Z,4.30
2019-03-24T01:37:36.332Z,4.30
2019-03-24T01:40:06.973Z,4.30
2019-03-24T01:42:36.166Z,4.30
2019-03-24T01:45:07.805Z,4.30
2019-03-24T01:47:36.922Z,4.30
2019-03-24T01:50:08.069Z,4.20
2019-03-24T01:52:36.946Z,4.20
2019-03-24T01:55:06.363Z,4.20
2019-03-24T01:57:35.657Z,4.20
2019-03-24T02:00:09.266Z,4.20
2019-03-24T02:02:38.670Z,4.20
2019-03-24T02:05:08.172Z,4.20
2019-03-24T02:07:37.410Z,4.10
2019-03-24T02:10:08.895Z,4.20
2019-03-24T02:12:38.016Z,4.10
2019-03-24T02:15:08.355Z,4.10
2019-03-24T02:17:37.166Z,4.10
2019-03-24T02:20:07.261Z,4.20
2019-03-24T02:22:36.052Z,4.30
2019-03-24T02:25:06.887Z,4.30
2019-03-24T02:27:36.192Z,4.30
2019-03-24T02:30:08.214Z,4.40
2019-03-24T02:32:36.946Z,4.30
2019-03-24T02:35:07.142Z,4.30
2019-03-24T02:37:36.774Z,4.40
2019-03-24T02:40:07.923Z,4.40
2019-03-24T02:42:37.113Z,4.30
2019-03-24T02:45:09.482Z,4.30
2019-03-24T02:47:38.485Z,4.30
2019-03-24T02:50:09.730Z,4.30
2019-03-24T02:52:39.028Z,4.20
2019-03-24T02:55:08.838Z,4.20
2019-03-24T02:57:37.629Z,4.10
2019-03-24T03:00:09.909Z,4.10
2019-03-24T03:02:39.003Z,4.20
2019-03-24T03:05:09.262Z,4.10
2019-03-24T03:07:38.023Z,4.10
2019-03-24T03:10:07.922Z,4.10
2019-03-24T03:12:37.132Z,4.20
2019-03-24T03:15:07.884Z,4.20
2019-03-24T03:17:37.067Z,4.20
2019-03-24T03:20:08.104Z,4.20
2019-03-24T03:22:37.195Z,4.30
2019-03-24T03:25:10.513Z,4.30
2019-03-24T03:27:38.485Z,4.20
2019-03-24T03:30:08.891Z,4.20
2019-03-24T03:32:37.989Z,4.20
2019-03-24T03:35:08.422Z,4.20
2019-03-24T03:37:37.954Z,4.20
2019-03-24T03:40:08.661Z,4.20
2019-03-24T03:42:39.423Z,4.20
2019-03-24T03:45:10.846Z,4.20
2019-03-24T03:47:40.938Z,4.10
2019-03-24T03:50:10.563Z,4.10
2019-03-24T03:52:39.672Z,4.00
2019-03-24T03:55:08.868Z,4.10
2019-03-24T03:57:38.068Z,4.00
2019-03-24T04:00:11.975Z,4.00
2019-03-24T04:02:41.282Z,4.00
2019-03-24T04:05:10.464Z,4.00
2019-03-24T04:07:39.246Z,4.00
2019-03-24T04:10:08.875Z,4.00
2019-03-24T04:12:37.587Z,4.00
2019-03-24T04:15:07.871Z,3.90
2019-03-24T04:17:36.691Z,3.90
2019-03-24T04:20:06.501Z,3.90
2019-03-24T04:22:35.574Z,3.80
2019-03-24T04:25:06.569Z,3.80
2019-03-24T04:27:35.624Z,3.80
2019-03-24T04:30:05.722Z,3.80
2019-03-24T04:32:34.530Z,3.80
2019-03-24T04:35:04.254Z,3.80
2019-03-24T04:37:33.443Z,3.80
2019-03-24T04:40:02.530Z,3.80
2019-03-24T04:42:31.356Z,3.70
2019-03-24T04:45:00.424Z,3.70
2019-03-24T04:47:29.514Z,3.70
2019-03-24T04:49:58.716Z,3.70
2019-03-24T04:52:27.802Z,3.60
2019-03-24T04:54:56.591Z,3.60
2019-03-24T04:57:25.338Z,3.60
2019-03-24T04:59:54.129Z,3.50
2019-03-24T05:02:22.979Z,3.50
2019-03-24T05:04:52.158Z,3.40
2019-03-24T05:07:21.453Z,3.40
2019-03-24T05:09:50.568Z,3.40
2019-03-24T05:12:19.870Z,3.40
2019-03-24T05:14:48.915Z,3.40
2019-03-24T05:17:26.651Z,3.40
2019-03-24T05:19:48.687Z,3.40
2019-03-24T05:22:17.463Z,3.30
2019-03-24T05:24:46.579Z,3.40
2019-03-24T05:27:15.364Z,3.40
2019-03-24T05:29:44.450Z,3.30
2019-03-24T05:32:13.858Z,3.30
2019-03-24T05:34:42.962Z,3.30
2019-03-24T05:37:12.055Z,3.30
2019-03-24T05:39:41.144Z,3.30
2019-03-24T05:42:09.969Z,3.30
2019-03-24T05:44:39.135Z,3.30
2019-03-24T05:47:07.954Z,3.30
2019-03-24T05:49:36.729Z,3.30
2019-03-24T05:52:05.516Z,3.30
2019-03-24T05:54:34.269Z,3.40
2019-03-24T05:57:03.394Z,3.40
2019-03-24T05:59:32.493Z,3.40
2019-03-24T06:02:01.689Z,3.40
2019-03-24T06:04:30.890Z,3.40
2019-03-24T06:07:00.202Z,3.40
2019-03-24T06:09:29.287Z,3.40
2019-03-24T06:11:58.483Z,3.40
2019-03-24T06:14:27.587Z,3.40
2019-03-24T06:16:56.364Z,3.40
2019-03-24T06:19:25.129Z,3.40
2019-03-24T06:21:54.059Z,3.40
2019-03-24T06:24:23.147Z,3.40
2019-03-24T06:26:52.349Z,3.40
2019-03-24T06:29:21.440Z,3.40
2019-03-24T06:31:50.217Z,3.40
2019-03-24T06:34:19.034Z,3.40
2019-03-24T06:36:47.815Z,3.40
2019-03-24T06:39:16.640Z,3.40
2019-03-24T06:41:45.999Z,3.50
2019-03-24T06:44:15.191Z,3.50
2019-03-24T06:46:43.938Z,3.50
2019-03-24T06:49:13.104Z,3.60
2019-03-24T06:51:42.587Z,3.60
2019-03-24T06:54:11.682Z,3.70
2019-03-24T06:56:40.505Z,3.80
2019-03-24T06:59:09.225Z,3.90
2019-03-24T07:01:38.046Z,4.10
2019-03-24T07:04:07.256Z,4.30
2019-03-24T07:06:35.972Z,4.60
2019-03-24T07:09:06.449Z,4.90
2019-03-24T07:11:35.671Z,5.10
2019-03-24T07:14:04.757Z,5.60
2019-03-24T07:16:33.863Z,6.00
2019-03-24T07:19:02.676Z,6.50
2019-03-24T07:21:31.751Z,6.80
2019-03-24T07:24:00.735Z,7.20
2019-03-24T07:26:29.486Z,7.60
2019-03-24T07:28:58.306Z,8.00
2019-03-24T07:31:27.405Z,8.50
2019-03-24T07:33:56.515Z,8.80
2019-03-24T07:36:25.338Z,8.80
2019-03-24T07:38:54.121Z,9.20
2019-03-24T07:41:23.390Z,9.50
2019-03-24T07:43:52.588Z,9.50
2019-03-24T07:46:21.682Z,9.80
2019-03-24T07:48:50.779Z,9.80
2019-03-24T07:51:19.990Z,9.40
2019-03-24T07:53:48.690Z,9.20
2019-03-24T07:56:17.514Z,8.50
2019-03-24T07:58:46.843Z,8.00
2019-03-24T08:01:15.959Z,7.50
2019-03-24T08:03:44.791Z,7.10
2019-03-24T08:06:13.521Z,6.60
2019-03-24T08:08:44.424Z,6.90
2019-03-24T08:11:13.666Z,7.40
2019-03-24T08:13:53.238Z,7.60
2019-03-24T08:16:13.194Z,7.90
2019-03-24T08:18:42.394Z,8.40
2019-03-24T08:21:11.492Z,8.50
2019-03-24T08:23:40.582Z,8.80
2019-03-24T08:26:09.331Z,9.60
2019-03-24T08:28:38.480Z,9.80
2019-03-24T08:31:07.266Z,10.30
2019-03-24T08:33:35.983Z,10.30
2019-03-24T08:36:05.150Z,10.20
2019-03-24T08:38:33.867Z,10.70
2019-03-24T08:41:02.980Z,10.70
2019-03-24T08:43:32.164Z,10.30
2019-03-24T08:46:01.333Z,10.10
2019-03-24T08:48:40.147Z,10.00
2019-03-24T08:51:00.854Z,9.80
2019-03-24T08:53:30.077Z,10.00
2019-03-24T08:55:58.799Z,10.40
2019-03-24T08:58:27.660Z,10.70
2019-03-24T09:00:56.476Z,10.80
2019-03-24T09:03:25.354Z,10.80
2019-03-24T09:05:54.452Z,10.60
2019-03-24T09:08:23.602Z,11.20
2019-03-24T09:10:52.385Z,11.40
2019-03-24T09:13:21.102Z,11.70
2019-03-24T09:15:50.291Z,12.00
2019-03-24T09:18:19.392Z,12.10
2019-03-24T09:20:48.107Z,11.50
2019-03-24T09:23:16.946Z,11.60
2019-03-24T09:25:45.954Z,12.30
2019-03-24T09:28:15.054Z,12.40
2019-03-24T09:30:44.259Z,12.00
2019-03-24T09:33:13.034Z,12.10
2019-03-24T09:35:42.449Z,12.00
2019-03-24T09:38:12.733Z,11.70
2019-03-24T09:40:41.962Z,11.50
2019-03-24T09:43:11.066Z,11.30
2019-03-24T09:45:40.778Z,11.30
2019-03-24T09:48:09.873Z,11.20
2019-03-24T09:50:38.690Z,11.10
2019-03-24T09:53:07.880Z,10.50
2019-03-24T09:55:36.874Z,10.10
2019-03-24T09:58:06.060Z,9.80
2019-03-24T10:00:35.017Z,9.90
2019-03-24T10:03:03.795Z,9.60
2019-03-24T10:05:32.579Z,9.30
2019-03-24T10:08:01.335Z,9.20
2019-03-24T10:10:30.112Z,9.30
2019-03-24T10:12:59.203Z,9.50
2019-03-24T10:15:28.406Z,10.00
2019-03-24T10:17:57.499Z,10.40
2019-03-24T10:20:26.287Z,11.50
2019-03-24T10:22:55.124Z,12.20
2019-03-24T10:25:24.678Z,12.60
2019-03-24T10:27:53.458Z,13.00
2019-03-24T10:30:22.579Z,13.00
2019-03-24T10:32:51.773Z,13.00
2019-03-24T10:35:20.862Z,13.00
2019-03-24T10:37:49.628Z,12.90
2019-03-24T10:40:28.075Z,13.10
2019-03-24T10:42:49.692Z,13.30
2019-03-24T10:45:18.518Z,13.30
2019-03-24T10:47:47.574Z,13.90
2019-03-24T10:50:16.374Z,14.40
2019-03-24T10:52:45.572Z,15.20
2019-03-24T10:55:14.655Z,15.00
2019-03-24T10:57:43.450Z,15.00
2019-03-24T11:00:14.390Z,15.50
2019-03-24T11:02:43.549Z,15.60
2019-03-24T11:05:12.874Z,16.00
2019-03-24T11:07:41.630Z,16.10
2019-03-24T11:10:12.188Z,16.40
2019-03-24T11:12:41.203Z,16.40
2019-03-24T11:15:11.329Z,16.50
2019-03-24T11:17:40.417Z,15.60
2019-03-24T11:20:09.866Z,14.90
2019-03-24T11:22:38.702Z,14.40
2019-03-24T11:25:09.555Z,13.80
2019-03-24T11:27:39.371Z,13.30
2019-03-24T11:30:11.349Z,12.90
2019-03-24T11:32:41.218Z,13.30
2019-03-24T11:35:11.681Z,13.40
2019-03-24T11:37:40.475Z,13.50
2019-03-24T11:40:10.207Z,13.00
2019-03-24T11:42:39.375Z,12.50
2019-03-24T11:45:10.210Z,12.10
2019-03-24T11:47:39.104Z,11.90
2019-03-24T11:50:09.255Z,11.70
2019-03-24T11:52:38.521Z,11.90
2019-03-24T11:55:09.058Z,12.20
2019-03-24T11:57:38.358Z,12.30
2019-03-24T12:00:12.970Z,12.60
2019-03-24T12:02:42.204Z,13.30
2019-03-24T12:05:11.483Z,13.70
2019-03-24T12:07:40.682Z,13.60
2019-03-24T12:10:11.013Z,13.70
2019-03-24T12:12:40.207Z,13.60
2019-03-24T12:15:09.611Z,13.80
2019-03-24T12:17:38.447Z,13.60
2019-03-24T12:20:10.061Z,13.40
2019-03-24T12:22:39.253Z,13.20
2019-03-24T12:25:09.375Z,12.50
2019-03-24T12:27:38.805Z,12.20
2019-03-24T12:30:09.047Z,12.10
2019-03-24T12:32:38.313Z,11.90
2019-03-24T12:35:09.032Z,11.90
2019-03-24T12:37:38.135Z,11.80
2019-03-24T12:40:09.174Z,11.90
2019-03-24T12:42:38.442Z,11.90
2019-03-24T12:45:12.696Z,11.80
2019-03-24T12:47:41.999Z,11.70
2019-03-24T12:50:11.814Z,11.60
2019-03-24T12:52:40.725Z,11.70
2019-03-24T12:55:10.455Z,11.90
2019-03-24T12:57:39.235Z,12.40
2019-03-24T13:00:11.053Z,12.30
2019-03-24T13:02:40.022Z,12.20
2019-03-24T13:05:10.092Z,11.90
2019-03-24T13:07:39.384Z,12.10
2019-03-24T13:10:09.295Z,12.00
2019-03-24T13:12:38.386Z,11.90
2019-03-24T13:15:09.544Z,11.80
2019-03-24T13:17:38.945Z,11.50
2019-03-24T13:20:07.932Z,11.40
2019-03-24T13:22:37.033Z,11.10
2019-03-24T13:25:09.210Z,11.10
2019-03-24T13:27:39.779Z,11.00
2019-03-24T13:30:09.436Z,11.00
2019-03-24T13:32:38.643Z,10.90
2019-03-24T13:35:07.580Z,10.50
2019-03-24T13:37:36.626Z,9.20
2019-03-24T13:40:06.434Z,8.70
2019-03-24T13:42:35.744Z,8.50
2019-03-24T13:45:06.983Z,8.50
2019-03-24T13:47:37.625Z,9.00
2019-03-24T13:50:08.279Z,9.70
2019-03-24T13:52:37.083Z,10.20
2019-03-24T13:55:07.510Z,10.80
2019-03-24T13:57:37.775Z,11.00
2019-03-24T14:00:12.218Z,11.60
2019-03-24T14:02:41.622Z,12.10
2019-03-24T14:05:10.624Z,12.70
2019-03-24T14:07:39.441Z,12.70
2019-03-24T14:10:09.427Z,12.30
2019-03-24T14:12:38.250Z,11.90
2019-03-24T14:15:08.639Z,11.50
2019-03-24T14:17:37.828Z,11.10
2019-03-24T14:20:08.572Z,10.80
2019-03-24T14:22:37.326Z,10.60
2019-03-24T14:25:07.619Z,10.60
2019-03-24T14:27:36.405Z,10.60
2019-03-24T14:30:08.855Z,10.50
2019-03-24T14:32:37.944Z,10.50
2019-03-24T14:35:07.710Z,10.60
2019-03-24T14:37:36.373Z,10.60
2019-03-24T14:40:08.920Z,10.30
2019-03-24T14:42:38.119Z,10.20
2019-03-24T14:45:08.911Z,10.20
2019-03-24T14:47:38.354Z,10.10
2019-03-24T14:50:07.963Z,9.90
2019-03-24T14:52:37.058Z,9.70
2019-03-24T14:55:06.670Z,9.40
2019-03-24T14:57:35.563Z,9.00
2019-03-24T15:00:06.895Z,8.80
2019-03-24T15:02:35.623Z,8.70
2019-03-24T15:05:07.359Z,8.50
2019-03-24T15:07:36.149Z,8.50
2019-03-24T15:10:06.655Z,8.50
2019-03-24T15:12:35.766Z,8.30
2019-03-24T15:15:07.426Z,8.10
2019-03-24T15:17:36.408Z,8.00
2019-03-24T15:20:07.693Z,8.20
2019-03-24T15:22:36.983Z,8.20
2019-03-24T15:25:06.994Z,8.10
2019-03-24T15:27:35.775Z,8.10
2019-03-24T15:30:07.436Z,8.10
2019-03-24T15:32:36.526Z,8.00
2019-03-24T15:35:08.250Z,8.10
2019-03-24T15:37:37.065Z,8.40
2019-03-24T15:40:07.099Z,8.90
2019-03-24T15:42:35.896Z,9.30
2019-03-24T15:45:07.199Z,9.60
2019-03-24T15:47:36.335Z,9.80
2019-03-24T15:50:08.956Z,9.90
2019-03-24T15:52:38.219Z,9.90
2019-03-24T15:55:08.936Z,9.90
2019-03-24T15:57:37.726Z,9.90
2019-03-24T16:00:08.983Z,9.90
2019-03-24T16:02:38.081Z,10.00
2019-03-24T16:05:08.076Z,9.90
2019-03-24T16:07:37.200Z,9.70
2019-03-24T16:10:09.567Z,9.10
2019-03-24T16:12:38.667Z,8.80
2019-03-24T16:15:10.525Z,8.60
2019-03-24T16:17:39.325Z,8.40
2019-03-24T16:20:08.621Z,8.30
2019-03-24T16:22:37.445Z,8.20
2019-03-24T16:25:07.930Z,8.20
2019-03-24T16:27:37.025Z,8.10
2019-03-24T16:30:07.559Z,8.00
2019-03-24T16:32:36.667Z,8.00
2019-03-24T16:35:06.679Z,7.80
2019-03-24T16:37:35.880Z,7.70
2019-03-24T16:40:07.835Z,7.60
2019-03-24T16:42:37.029Z,7.50
2019-03-24T16:45:07.054Z,7.30
2019-03-24T16:47:36.143Z,7.30
2019-03-24T16:50:07.161Z,7.30
2019-03-24T16:52:35.946Z,7.20
2019-03-24T16:55:06.644Z,7.20
2019-03-24T16:57:35.450Z,7.20
2019-03-24T17:00:09.322Z,7.20
2019-03-24T17:02:41.719Z,7.10
2019-03-24T17:05:10.835Z,7.10
2019-03-24T17:07:40.773Z,7.00
2019-03-24T17:10:11.027Z,6.90
2019-03-24T17:12:39.732Z,6.90
2019-03-24T17:15:10.743Z,6.90
2019-03-24T17:17:39.954Z,6.80
2019-03-24T17:20:09.031Z,6.80
2019-03-24T17:22:38.235Z,6.80
2019-03-24T17:25:08.407Z,6.70
2019-03-24T17:27:37.965Z,6.70
2019-03-24T17:30:09.745Z,6.60
2019-03-24T17:32:38.535Z,6.20
2019-03-24T17:35:08.235Z,6.10
2019-03-24T17:37:37.331Z,5.90
2019-03-24T17:40:08.267Z,5.80
2019-03-24T17:42:37.361Z,5.80
2019-03-24T17:45:09.040Z,5.70
2019-03-24T17:47:37.960Z,5.70
2019-03-24T17:50:08.141Z,5.70
2019-03-24T17:52:38.473Z,5.70
2019-03-24T17:55:07.950Z,5.70
2019-03-24T17:57:36.658Z,5.60
2019-03-24T18:00:11.684Z,5.60
2019-03-24T18:02:40.897Z,5.60
2019-03-24T18:05:10.603Z,5.60
2019-03-24T18:07:39.315Z,5.60
2019-03-24T18:10:10.230Z,5.60
2019-03-24T18:12:39.425Z,5.60
2019-03-24T18:15:10.472Z,5.60
2019-03-24T18:17:39.286Z,5.50
2019-03-24T18:20:10.197Z,5.50
2019-03-24T18:25:13.624Z,5.40
2019-03-24T18:27:42.423Z,5.30
2019-03-24T18:30:12.617Z,5.20
2019-03-24T18:32:42.251Z,5.20
2019-03-24T18:35:11.261Z,5.10
2019-03-24T18:37:40.014Z,5.10
2019-03-24T18:40:10.053Z,5.10
2019-03-24T18:42:39.346Z,5.00
2019-03-24T18:45:11.352Z,5.00
2019-03-24T18:47:40.131Z,4.90
2019-03-24T18:50:11.572Z,4.90
2019-03-24T18:52:40.982Z,4.90
2019-03-24T18:55:10.657Z,4.90
2019-03-24T18:57:39.433Z,4.90
2019-03-24T19:00:10.255Z,4.90
2019-03-24T19:02:40.909Z,4.90
2019-03-24T19:05:10.010Z,4.90
2019-03-24T19:07:39.221Z,4.80
2019-03-24T19:10:09.644Z,4.80
2019-03-24T19:12:39.963Z,4.90
2019-03-24T19:15:11.000Z,4.90
2019-03-24T19:17:40.378Z,4.90
2019-03-24T19:20:11.041Z,4.90
2019-03-24T19:22:39.964Z,4.80
2019-03-24T19:25:11.389Z,4.90
2019-03-24T19:27:40.507Z,4.90
2019-03-24T19:30:14.759Z,4.90
2019-03-24T19:32:46.563Z,4.90
2019-03-24T19:35:15.973Z,4.80
2019-03-24T19:37:46.901Z,4.90
2019-03-24T19:40:30.237Z,4.80
2019-03-24T19:43:00.767Z,4.80
2019-03-24T19:45:29.863Z,4.80
2019-03-24T19:47:59.170Z,4.80
2019-03-24T19:50:27.990Z,4.80
2019-03-24T19:52:57.053Z,4.80
2019-03-24T19:55:26.137Z,4.80
2019-03-24T19:57:56.682Z,4.70
2019-03-24T20:00:26.062Z,4.70
2019-03-24T20:02:54.887Z,4.70
2019-03-24T20:05:23.697Z,4.70
2019-03-24T20:07:54.292Z,4.70
2019-03-24T20:10:23.122Z,4.70
2019-03-24T20:12:56.282Z,4.70
2019-03-24T20:15:25.061Z,4.70
2019-03-24T20:17:54.391Z,4.70
2019-03-24T20:20:24.616Z,4.70
2019-03-24T20:22:56.870Z,4.70
2019-03-24T20:25:26.060Z,4.70
2019-03-24T20:27:54.965Z,4.60
2019-03-24T20:30:25.167Z,4.60
2019-03-24T20:32:55.393Z,4.60
2019-03-24T20:35:26.035Z,4.60
2019-03-24T20:37:56.766Z,4.60
2019-03-24T20:40:26.753Z,4.60
2019-03-24T20:42:55.954Z,4.50
2019-03-24T20:45:24.773Z,4.60
2019-03-24T20:48:02.083Z,4.60
2019-03-24T20:50:32.696Z,4.60
2019-03-24T20:53:08.712Z,4.60
2019-03-24T20:55:34.481Z,4.60
2019-03-24T20:58:02.954Z,4.70
2019-03-24T21:00:36.565Z,4.80
2019-03-24T21:03:07.292Z,4.80
2019-03-24T21:05:36.787Z,4.80
2019-03-24T21:08:06.103Z,4.90
2019-03-24T21:10:35.304Z,4.90
2019-03-24T21:13:05.923Z,5.00
2019-03-24T21:15:35.029Z,5.00
2019-03-24T21:18:05.658Z,5.00
2019-03-24T21:20:34.459Z,5.00
2019-03-24T21:23:03.644Z,4.90
2019-03-24T21:25:34.076Z,4.80
2019-03-24T21:28:03.273Z,4.70
2019-03-24T21:30:36.596Z,4.60
2019-03-24T21:33:04.878Z,4.50
2019-03-24T21:35:34.037Z,4.50
2019-03-24T21:38:02.894Z,4.40
2019-03-24T21:40:33.459Z,4.50
2019-03-24T21:43:02.271Z,4.50
2019-03-24T21:45:32.510Z,4.50
2019-03-24T21:48:01.668Z,4.50
2019-03-24T21:50:30.412Z,4.50
2019-03-24T21:52:59.555Z,4.50
2019-03-24T21:55:28.660Z,4.50
2019-03-24T21:57:58.094Z,4.60
2019-03-24T22:00:35.561Z,4.60
2019-03-24T22:03:06.602Z,4.70
2019-03-24T22:05:37.336Z,4.80
2019-03-24T22:08:16.351Z,4.80
2019-03-24T22:10:45.167Z,4.90
2019-03-24T22:15:49.183Z,5.00
2019-03-24T22:18:18.483Z,5.00
2019-03-24T22:20:49.221Z,5.00
2019-03-24T22:23:19.413Z,5.00
2019-03-24T22:25:48.120Z,5.00
2019-03-24T22:28:17.534Z,5.00
2019-03-24T22:30:48.167Z,5.00
2019-03-24T22:33:16.937Z,5.10
2019-03-24T22:35:47.474Z,5.10
2019-03-24T22:38:18.018Z,5.20
2019-03-24T22:40:46.831Z,5.30
2019-03-24T22:43:16.209Z,5.30
2019-03-24T22:45:45.403Z,5.30
2019-03-24T22:48:14.587Z,5.40
2019-03-24T22:50:43.694Z,5.40
2019-03-24T22:53:12.470Z,5.40
2019-03-24T22:55:41.294Z,5.40
2019-03-24T22:58:10.082Z,5.40
2019-03-24T23:00:42.958Z,5.40
2019-03-24T23:03:13.588Z,5.40
2019-03-24T23:05:43.080Z,5.30
2019-03-24T23:08:11.892Z,5.30
2019-03-24T23:10:40.977Z,5.30
2019-03-24T23:13:11.607Z,5.30
2019-03-24T23:15:41.010Z,5.30
2019-03-24T23:18:09.803Z,5.20
2019-03-24T23:20:38.658Z,5.20
2019-03-24T23:23:07.830Z,5.10
2019-03-24T23:25:36.625Z,5.10
2019-03-24T23:28:07.168Z,5.10
2019-03-24T23:30:35.949Z,5.10
2019-03-24T23:33:05.521Z,5.10
2019-03-24T23:35:34.597Z,5.10
2019-03-24T23:38:04.849Z,5.10
2019-03-24T23:40:34.036Z,5.10
2019-03-24T23:43:03.230Z,5.00
2019-03-24T23:45:32.007Z,5.00
2019-03-24T23:48:01.215Z,5.00
2019-03-24T23:50:31.423Z,4.90
2019-03-24T23:53:00.539Z,4.90
2019-03-24T23:55:29.274Z,5.00
2019-03-24T23:57:58.419Z,5.00
